sensor_id;sensor_type;location;lat;lon;timestamp;pressure;altitude;pressure_sealevel;temperature;humidity
69535;BME280;56754;51.568;5.048;2023-05-29T00:01:27;102283.91;;;19.30;54.67
69535;BME280;56754;51.568;5.048;2023-05-29T00:03:52;102285.03;;;19.29;55.25
69535;BME280;56754;51.568;5.048;2023-05-29T00:06:18;102289.22;;;19.26;55.51
69535;BME280;56754;51.568;5.048;2023-05-29T00:08:44;102294.16;;;19.24;54.35
69535;BME280;56754;51.568;5.048;2023-05-29T00:11:09;102302.94;;;19.21;54.96
69535;BME280;56754;51.568;5.048;2023-05-29T00:13:35;102293.25;;;19.20;54.64
69535;BME280;56754;51.568;5.048;2023-05-29T00:16:00;102294.34;;;19.19;55.25
69535;BME280;56754;51.568;5.048;2023-05-29T00:18:25;102299.34;;;19.17;55.18
69535;BME280;56754;51.568;5.048;2023-05-29T00:20:51;102298.88;;;19.15;54.75
69535;BME280;56754;51.568;5.048;2023-05-29T00:23:16;102299.19;;;19.14;55.44
69535;BME280;56754;51.568;5.048;2023-05-29T00:25:41;102295.25;;;19.11;54.83
69535;BME280;56754;51.568;5.048;2023-05-29T00:28:07;102308.31;;;19.09;55.69
69535;BME280;56754;51.568;5.048;2023-05-29T00:30:32;102311.34;;;19.07;55.18
69535;BME280;56754;51.568;5.048;2023-05-29T00:32:58;102304.22;;;19.03;54.68
69535;BME280;56754;51.568;5.048;2023-05-29T00:35:23;102305.38;;;19.02;55.22
69535;BME280;56754;51.568;5.048;2023-05-29T00:37:48;102310.31;;;19.00;55.36
69535;BME280;56754;51.568;5.048;2023-05-29T00:40:14;102314.13;;;18.99;55.08
69535;BME280;56754;51.568;5.048;2023-05-29T00:42:39;102315.59;;;18.96;55.47
69535;BME280;56754;51.568;5.048;2023-05-29T00:45:05;102315.13;;;18.94;54.37
69535;BME280;56754;51.568;5.048;2023-05-29T00:47:31;102316.56;;;18.92;54.33
69535;BME280;56754;51.568;5.048;2023-05-29T00:49:56;102316.09;;;18.90;54.85
69535;BME280;56754;51.568;5.048;2023-05-29T00:52:23;102311.34;;;18.86;55.27
69535;BME280;56754;51.568;5.048;2023-05-29T00:54:49;102312.00;;;18.83;54.36
69535;BME280;56754;51.568;5.048;2023-05-29T00:57:16;102310.44;;;18.82;54.99
69535;BME280;56754;51.568;5.048;2023-05-29T00:59:42;102323.50;;;18.80;54.77
69535;BME280;56754;51.568;5.048;2023-05-29T01:02:08;102314.94;;;18.78;54.49
69535;BME280;56754;51.568;5.048;2023-05-29T01:04:34;102328.00;;;18.76;54.79
69535;BME280;56754;51.568;5.048;2023-05-29T01:07:02;102329.13;;;18.75;54.47
69535;BME280;56754;51.568;5.048;2023-05-29T01:09:30;102320.38;;;18.70;54.61
69535;BME280;56754;51.568;5.048;2023-05-29T01:15:08;102324.84;;;18.65;54.79
69535;BME280;56754;51.568;5.048;2023-05-29T01:20:24;102335.88;;;18.60;55.07
69535;BME280;56754;51.568;5.048;2023-05-29T01:28:28;102332.09;;;18.53;55.16
69535;BME280;56754;51.568;5.048;2023-05-29T01:30:57;102325.41;;;18.50;54.80
69535;BME280;56754;51.568;5.048;2023-05-29T01:33:23;102333.88;;;18.49;54.71
69535;BME280;56754;51.568;5.048;2023-05-29T01:35:49;102340.72;;;18.46;54.09
69535;BME280;56754;51.568;5.048;2023-05-29T01:38:14;102335.63;;;18.45;54.96
69535;BME280;56754;51.568;5.048;2023-05-29T01:40:40;102327.84;;;18.43;55.27
69535;BME280;56754;51.568;5.048;2023-05-29T01:43:05;102331.19;;;18.40;54.90
69535;BME280;56754;51.568;5.048;2023-05-29T01:45:31;102323.38;;;18.38;54.37
69535;BME280;56754;51.568;5.048;2023-05-29T01:47:57;102328.31;;;18.36;54.10
69535;BME280;56754;51.568;5.048;2023-05-29T01:50:23;102329.44;;;18.35;54.67
69535;BME280;56754;51.568;5.048;2023-05-29T01:52:49;102335.50;;;18.32;55.26
69535;BME280;56754;51.568;5.048;2023-05-29T01:55:17;102339.34;;;18.31;54.76
69535;BME280;56754;51.568;5.048;2023-05-29T01:57:43;102335.38;;;18.29;55.51
69535;BME280;56754;51.568;5.048;2023-05-29T02:00:10;102341.09;;;18.27;54.91
69535;BME280;56754;51.568;5.048;2023-05-29T02:02:38;102327.91;;;18.26;54.51
69535;BME280;56754;51.568;5.048;2023-05-29T02:05:05;102333.63;;;18.24;54.98
69535;BME280;56754;51.568;5.048;2023-05-29T02:07:30;102336.69;;;18.23;55.01
69535;BME280;56754;51.568;5.048;2023-05-29T02:09:56;102332.72;;;18.20;54.88
69535;BME280;56754;51.568;5.048;2023-05-29T02:12:21;102337.63;;;18.18;54.70
69535;BME280;56754;51.568;5.048;2023-05-29T02:14:46;102332.56;;;18.16;54.51
69535;BME280;56754;51.568;5.048;2023-05-29T02:17:12;102333.66;;;18.15;55.45
69535;BME280;56754;51.568;5.048;2023-05-29T02:19:37;102326.97;;;18.13;55.58
69535;BME280;56754;51.568;5.048;2023-05-29T02:22:02;102334.66;;;18.11;54.91
69535;BME280;56754;51.568;5.048;2023-05-29T02:24:28;102331.47;;;18.09;54.93
69535;BME280;56754;51.568;5.048;2023-05-29T02:26:53;102332.91;;;18.06;54.73
69535;BME280;56754;51.568;5.048;2023-05-29T02:29:18;102334.03;;;18.05;55.05
69535;BME280;56754;51.568;5.048;2023-05-29T02:31:44;102337.38;;;18.02;54.75
69535;BME280;56754;51.568;5.048;2023-05-29T02:34:09;102339.59;;;18.00;55.01
69535;BME280;56754;51.568;5.048;2023-05-29T02:36:35;102345.66;;;17.97;55.15
69535;BME280;56754;51.568;5.048;2023-05-29T02:39:00;102340.59;;;17.95;55.86
69535;BME280;56754;51.568;5.048;2023-05-29T02:41:25;102352.50;;;17.94;55.12
69535;BME280;56754;51.568;5.048;2023-05-29T02:43:51;102356.34;;;17.93;55.50
69535;BME280;56754;51.568;5.048;2023-05-29T02:46:16;102358.56;;;17.91;55.52
69535;BME280;56754;51.568;5.048;2023-05-29T02:48:41;102365.09;;;17.90;55.70
69535;BME280;56754;51.568;5.048;2023-05-29T02:51:07;102354.94;;;17.87;54.90
69535;BME280;56754;51.568;5.048;2023-05-29T02:53:32;102358.41;;;17.88;55.48
69535;BME280;56754;51.568;5.048;2023-05-29T02:55:57;102356.34;;;17.85;55.57
69535;BME280;56754;51.568;5.048;2023-05-29T02:58:23;102359.38;;;17.83;55.34
69535;BME280;56754;51.568;5.048;2023-05-29T03:00:48;102357.78;;;17.82;55.17
69535;BME280;56754;51.568;5.048;2023-05-29T03:03:14;102351.09;;;17.80;56.09
69535;BME280;56754;51.568;5.048;2023-05-29T03:05:39;102356.06;;;17.78;55.42
69535;BME280;56754;51.568;5.048;2023-05-29T03:08:05;102354.75;;;17.75;55.94
69535;BME280;56754;51.568;5.048;2023-05-29T03:10:30;102351.22;;;17.74;54.84
69535;BME280;56754;51.568;5.048;2023-05-29T03:12:55;102347.28;;;17.72;55.48
69535;BME280;56754;51.568;5.048;2023-05-29T03:15:21;102348.72;;;17.69;56.56
69535;BME280;56754;51.568;5.048;2023-05-29T03:17:46;102353.66;;;17.67;56.14
69535;BME280;56754;51.568;5.048;2023-05-29T03:20:12;102345.03;;;17.65;56.20
69535;BME280;56754;51.568;5.048;2023-05-29T03:22:37;102348.88;;;17.64;56.00
69535;BME280;56754;51.568;5.048;2023-05-29T03:25:03;102349.19;;;17.63;55.79
69535;BME280;56754;51.568;5.048;2023-05-29T03:27:29;102348.41;;;17.62;56.65
69535;BME280;56754;51.568;5.048;2023-05-29T03:29:55;102342.84;;;17.59;55.82
69535;BME280;56754;51.568;5.048;2023-05-29T03:32:20;102350.47;;;17.57;55.90
69535;BME280;56754;51.568;5.048;2023-05-29T03:34:46;102353.16;;;17.57;56.53
69535;BME280;56754;51.568;5.048;2023-05-29T03:37:11;102356.50;;;17.54;55.66
69535;BME280;56754;51.568;5.048;2023-05-29T03:39:36;102354.13;;;17.52;56.08
69535;BME280;56754;51.568;5.048;2023-05-29T03:42:02;102359.06;;;17.50;55.73
69535;BME280;56754;51.568;5.048;2023-05-29T03:44:27;102366.38;;;17.49;56.18
69535;BME280;56754;51.568;5.048;2023-05-29T03:46:52;102367.50;;;17.48;56.32
69535;BME280;56754;51.568;5.048;2023-05-29T03:49:18;102370.50;;;17.47;56.17
69535;BME280;56754;51.568;5.048;2023-05-29T03:51:43;102363.53;;;17.46;56.55
69535;BME280;56754;51.568;5.048;2023-05-29T03:54:08;102368.16;;;17.45;55.53
69535;BME280;56754;51.568;5.048;2023-05-29T03:56:34;102373.84;;;17.44;56.24
69535;BME280;56754;51.568;5.048;2023-05-29T03:58:59;102375.28;;;17.41;56.33
69535;BME280;56754;51.568;5.048;2023-05-29T04:01:24;102374.81;;;17.39;56.67
69535;BME280;56754;51.568;5.048;2023-05-29T04:03:50;102375.91;;;17.38;56.34
69535;BME280;56754;51.568;5.048;2023-05-29T04:06:15;102380.53;;;17.38;56.58
69535;BME280;56754;51.568;5.048;2023-05-29T04:08:40;102386.28;;;17.36;55.75
69535;BME280;56754;51.568;5.048;2023-05-29T04:11:06;102389.28;;;17.35;55.81
69535;BME280;56754;51.568;5.048;2023-05-29T04:13:31;102393.88;;;17.34;56.31
69535;BME280;56754;51.568;5.048;2023-05-29T04:15:56;102393.88;;;17.34;57.16
69535;BME280;56754;51.568;5.048;2023-05-29T04:18:22;102399.28;;;17.34;56.40
69535;BME280;56754;51.568;5.048;2023-05-29T04:20:47;102388.47;;;17.34;56.95
69535;BME280;56754;51.568;5.048;2023-05-29T04:23:13;102391.19;;;17.34;56.38
69535;BME280;56754;51.568;5.048;2023-05-29T04:25:38;102394.53;;;17.31;56.54
69535;BME280;56754;51.568;5.048;2023-05-29T04:28:04;102391.03;;;17.31;56.13
69535;BME280;56754;51.568;5.048;2023-05-29T04:30:29;102401.50;;;17.32;56.77
69535;BME280;56754;51.568;5.048;2023-05-29T04:32:54;102392.59;;;17.32;56.56
69535;BME280;56754;51.568;5.048;2023-05-29T04:35:20;102391.50;;;17.33;56.54
69535;BME280;56754;51.568;5.048;2023-05-29T04:37:45;102393.72;;;17.31;55.81
69535;BME280;56754;51.568;5.048;2023-05-29T04:40:10;102394.03;;;17.29;56.32
69535;BME280;56754;51.568;5.048;2023-05-29T04:42:36;102388.31;;;17.31;56.78
69535;BME280;56754;51.568;5.048;2023-05-29T04:45:03;102398.31;;;17.30;56.38
69535;BME280;56754;51.568;5.048;2023-05-29T04:47:30;102398.31;;;17.30;56.68
69535;BME280;56754;51.568;5.048;2023-05-29T04:49:55;102394.03;;;17.29;56.19
69535;BME280;56754;51.568;5.048;2023-05-29T04:52:20;102391.34;;;17.29;56.82
69535;BME280;56754;51.568;5.048;2023-05-29T04:54:45;102398.66;;;17.28;56.32
69535;BME280;56754;51.568;5.048;2023-05-29T04:57:11;102400.56;;;17.28;55.81
69535;BME280;56754;51.568;5.048;2023-05-29T04:59:36;102388.97;;;17.27;55.71
69535;BME280;56754;51.568;5.048;2023-05-29T05:02:01;102400.56;;;17.28;55.82
69535;BME280;56754;51.568;5.048;2023-05-29T05:04:27;102400.56;;;17.28;56.73
69535;BME280;56754;51.568;5.048;2023-05-29T05:06:52;102400.22;;;17.29;55.95
69535;BME280;56754;51.568;5.048;2023-05-29T05:09:17;102400.22;;;17.29;56.48
69535;BME280;56754;51.568;5.048;2023-05-29T05:11:43;102409.13;;;17.30;56.10
69535;BME280;56754;51.568;5.048;2023-05-29T05:14:08;102417.72;;;17.32;57.04
69535;BME280;56754;51.568;5.048;2023-05-29T05:16:34;102416.94;;;17.32;55.91
69535;BME280;56754;51.568;5.048;2023-05-29T05:18:59;102424.72;;;17.33;55.95
69535;BME280;56754;51.568;5.048;2023-05-29T05:21:24;102433.63;;;17.34;56.10
69535;BME280;56754;51.568;5.048;2023-05-29T05:23:50;102436.00;;;17.35;56.46
69535;BME280;56754;51.568;5.048;2023-05-29T05:26:15;102442.22;;;17.36;55.83
69535;BME280;56754;51.568;5.048;2023-05-29T05:28:40;102438.41;;;17.37;55.54
69535;BME280;56754;51.568;5.048;2023-05-29T05:31:06;102440.47;;;17.40;55.45
69535;BME280;56754;51.568;5.048;2023-05-29T05:33:31;102436.66;;;17.41;54.70
69535;BME280;56754;51.568;5.048;2023-05-29T05:35:56;102425.84;;;17.41;54.73
69535;BME280;56754;51.568;5.048;2023-05-29T05:38:22;102437.94;;;17.43;55.18
69535;BME280;56754;51.568;5.048;2023-05-29T05:40:47;102436.19;;;17.47;55.48
69535;BME280;56754;51.568;5.048;2023-05-29T05:43:12;102441.78;;;17.51;55.11
69535;BME280;56754;51.568;5.048;2023-05-29T05:45:37;102432.19;;;17.54;55.28
69535;BME280;56754;51.568;5.048;2023-05-29T05:48:03;102436.97;;;17.57;54.99
69535;BME280;56754;51.568;5.048;2023-05-29T05:50:28;102435.88;;;17.58;54.94
69535;BME280;56754;51.568;5.048;2023-05-29T05:52:54;102437.63;;;17.62;54.72
69535;BME280;56754;51.568;5.048;2023-05-29T05:55:19;102440.03;;;17.64;54.40
69535;BME280;56754;51.568;5.048;2023-05-29T05:57:45;102439.38;;;17.67;54.68
69535;BME280;56754;51.568;5.048;2023-05-29T06:00:11;102444.16;;;17.70;54.31
69535;BME280;56754;51.568;5.048;2023-05-29T06:02:36;102440.31;;;17.71;54.33
69535;BME280;56754;51.568;5.048;2023-05-29T06:05:01;102432.06;;;17.76;54.91
69535;BME280;56754;51.568;5.048;2023-05-29T06:07:27;102433.63;;;17.77;54.23
69535;BME280;56754;51.568;5.048;2023-05-29T06:09:52;102435.28;;;17.78;54.13
69535;BME280;56754;51.568;5.048;2023-05-29T06:12:18;102437.34;;;17.81;53.58
69535;BME280;56754;51.568;5.048;2023-05-29T06:14:43;102446.25;;;17.82;53.24
69535;BME280;56754;51.568;5.048;2023-05-29T06:17:08;102447.53;;;17.84;53.78
69535;BME280;56754;51.568;5.048;2023-05-29T06:19:33;102451.16;;;17.88;53.77
69535;BME280;56754;51.568;5.048;2023-05-29T06:21:59;102458.16;;;17.89;53.52
69535;BME280;56754;51.568;5.048;2023-05-29T06:24:24;102455.94;;;17.91;54.19
69535;BME280;56754;51.568;5.048;2023-05-29T06:26:50;102455.31;;;17.94;53.57
69535;BME280;56754;51.568;5.048;2023-05-29T06:29:15;102458.50;;;17.96;53.69
69535;BME280;56754;51.568;5.048;2023-05-29T06:31:40;102455.94;;;18.00;53.75
69535;BME280;56754;51.568;5.048;2023-05-29T06:34:06;102464.22;;;18.04;53.51
69535;BME280;56754;51.568;5.048;2023-05-29T06:36:31;102471.69;;;18.07;53.43
69535;BME280;56754;51.568;5.048;2023-05-29T06:38:56;102473.75;;;18.10;53.22
69535;BME280;56754;51.568;5.048;2023-05-29T06:41:22;102472.66;;;18.11;53.22
69535;BME280;56754;51.568;5.048;2023-05-29T06:43:47;102484.75;;;18.13;53.28
69535;BME280;56754;51.568;5.048;2023-05-29T06:46:12;102458.63;;;18.17;52.86
69535;BME280;56754;51.568;5.048;2023-05-29T06:48:38;102469.16;;;18.19;52.64
69535;BME280;56754;51.568;5.048;2023-05-29T06:51:03;102470.72;;;18.20;53.04
69535;BME280;56754;51.568;5.048;2023-05-29T06:53:28;102469.28;;;18.23;53.05
69535;BME280;56754;51.568;5.048;2023-05-29T06:55:54;102469.75;;;18.25;52.62
69535;BME280;56754;51.568;5.048;2023-05-29T06:58:20;102472.16;;;18.26;52.31
69535;BME280;56754;51.568;5.048;2023-05-29T07:00:45;102461.81;;;18.28;52.39
69535;BME280;56754;51.568;5.048;2023-05-29T07:03:10;102468.16;;;18.32;52.32
69535;BME280;56754;51.568;5.048;2023-05-29T07:05:36;102473.56;;;18.32;51.79
69535;BME280;56754;51.568;5.048;2023-05-29T07:08:01;102468.63;;;18.34;51.67
69535;BME280;56754;51.568;5.048;2023-05-29T07:10:26;102467.19;;;18.37;52.16
69535;BME280;56754;51.568;5.048;2023-05-29T07:12:52;102467.34;;;18.40;52.32
69535;BME280;56754;51.568;5.048;2023-05-29T07:15:17;102470.50;;;18.42;51.91
69535;BME280;56754;51.568;5.048;2023-05-29T07:17:42;102463.66;;;18.45;52.00
69535;BME280;56754;51.568;5.048;2023-05-29T07:20:08;102470.34;;;18.48;51.65
69535;BME280;56754;51.568;5.048;2023-05-29T07:22:34;102462.69;;;18.50;52.06
69535;BME280;56754;51.568;5.048;2023-05-29T07:24:59;102467.47;;;18.53;52.13
69535;BME280;56754;51.568;5.048;2023-05-29T07:27:25;102466.81;;;18.56;52.36
69535;BME280;56754;51.568;5.048;2023-05-29T07:29:51;102473.50;;;18.58;52.14
69535;BME280;56754;51.568;5.048;2023-05-29T07:32:16;102477.47;;;18.61;52.14
69535;BME280;56754;51.568;5.048;2023-05-29T07:34:41;102469.81;;;18.63;52.16
69535;BME280;56754;51.568;5.048;2023-05-29T07:37:07;102472.19;;;18.64;52.01
69535;BME280;56754;51.568;5.048;2023-05-29T07:39:33;102476.19;;;18.67;51.55
69535;BME280;56754;51.568;5.048;2023-05-29T07:42:02;102487.00;;;18.67;50.85
69535;BME280;56754;51.568;5.048;2023-05-29T07:44:28;102482.06;;;18.69;50.94
69535;BME280;56754;51.568;5.048;2023-05-29T07:46:53;102484.75;;;18.69;51.00
69535;BME280;56754;51.568;5.048;2023-05-29T07:49:22;102480.94;;;18.70;50.93
69535;BME280;56754;51.568;5.048;2023-05-29T07:51:47;102487.94;;;18.71;51.08
69535;BME280;56754;51.568;5.048;2023-05-29T07:54:12;102484.63;;;18.74;50.95
69535;BME280;56754;51.568;5.048;2023-05-29T07:56:38;102488.13;;;18.75;50.96
69535;BME280;56754;51.568;5.048;2023-05-29T07:59:04;102490.50;;;18.76;50.86
69535;BME280;56754;51.568;5.048;2023-05-29T08:01:29;102492.88;;;18.78;50.75
69535;BME280;56754;51.568;5.048;2023-05-29T08:03:55;102483.66;;;18.79;51.08
69535;BME280;56754;51.568;5.048;2023-05-29T08:06:22;102496.56;;;18.82;51.45
69535;BME280;56754;51.568;5.048;2023-05-29T08:08:47;102490.78;;;18.83;50.78
69535;BME280;56754;51.568;5.048;2023-05-29T08:11:12;102487.00;;;18.84;50.30
69535;BME280;56754;51.568;5.048;2023-05-29T08:13:38;102491.28;;;18.85;50.45
69535;BME280;56754;51.568;5.048;2023-05-29T08:16:03;102502.59;;;18.88;50.58
69535;BME280;56754;51.568;5.048;2023-05-29T08:18:30;102496.84;;;18.89;50.54
69535;BME280;56754;51.568;5.048;2023-05-29T08:20:56;102501.94;;;18.91;50.58
69535;BME280;56754;51.568;5.048;2023-05-29T08:23:21;102495.38;;;18.92;51.01
69535;BME280;56754;51.568;5.048;2023-05-29T08:25:47;102496.97;;;18.93;50.64
69535;BME280;56754;51.568;5.048;2023-05-29T08:28:12;102492.03;;;18.95;50.83
69535;BME280;56754;51.568;5.048;2023-05-29T08:30:37;102496.31;;;18.96;50.09
69535;BME280;56754;51.568;5.048;2023-05-29T08:33:03;102488.19;;;18.96;49.75
69535;BME280;56754;51.568;5.048;2023-05-29T08:35:29;102500.63;;;18.97;49.63
69535;BME280;56754;51.568;5.048;2023-05-29T08:37:54;102495.22;;;18.97;50.22
69535;BME280;56754;51.568;5.048;2023-05-29T08:40:20;102498.38;;;18.99;50.36
69535;BME280;56754;51.568;5.048;2023-05-29T08:42:47;102490.72;;;19.01;50.63
69535;BME280;56754;51.568;5.048;2023-05-29T08:45:18;102491.19;;;19.03;50.93
69535;BME280;56754;51.568;5.048;2023-05-29T08:47:44;102496.28;;;19.04;50.84
69535;BME280;56754;51.568;5.048;2023-05-29T08:50:15;102506.47;;;19.07;50.47
69535;BME280;56754;51.568;5.048;2023-05-29T08:52:41;102511.56;;;19.09;50.35
69535;BME280;56754;51.568;5.048;2023-05-29T08:55:07;102505.03;;;19.10;50.43
69535;BME280;56754;51.568;5.048;2023-05-29T08:57:32;102512.06;;;19.11;51.07
69535;BME280;56754;51.568;5.048;2023-05-29T09:00:00;102511.72;;;19.13;50.58
69535;BME280;56754;51.568;5.048;2023-05-29T09:02:25;102516.81;;;19.14;50.86
69535;BME280;56754;51.568;5.048;2023-05-29T09:04:51;102515.38;;;19.17;51.61
69535;BME280;56754;51.568;5.048;2023-05-29T09:07:16;102516.16;;;19.17;51.77
69535;BME280;56754;51.568;5.048;2023-05-29T09:09:42;102521.25;;;19.19;51.37
69535;BME280;56754;51.568;5.048;2023-05-29T09:12:07;102524.44;;;19.21;51.10
69535;BME280;56754;51.568;5.048;2023-05-29T09:14:36;102508.16;;;19.21;51.08
69535;BME280;56754;51.568;5.048;2023-05-29T09:17:03;102508.97;;;19.21;51.28
69535;BME280;56754;51.568;5.048;2023-05-29T09:19:28;102512.16;;;19.23;51.08
69535;BME280;56754;51.568;5.048;2023-05-29T09:22:18;102522.66;;;19.25;51.45
69535;BME280;56754;51.568;5.048;2023-05-29T09:24:47;102515.31;;;19.25;51.46
69535;BME280;56754;51.568;5.048;2023-05-29T09:27:13;102524.25;;;19.26;51.21
69535;BME280;56754;51.568;5.048;2023-05-29T09:29:40;102507.66;;;19.27;51.52
69535;BME280;56754;51.568;5.048;2023-05-29T09:32:10;102506.84;;;19.27;51.94
69535;BME280;56754;51.568;5.048;2023-05-29T09:34:37;102504.63;;;19.29;51.57
69535;BME280;56754;51.568;5.048;2023-05-29T09:37:03;102508.13;;;19.29;51.71
69535;BME280;56754;51.568;5.048;2023-05-29T09:39:29;102498.06;;;19.30;52.02
69535;BME280;56754;51.568;5.048;2023-05-29T09:41:54;102507.00;;;19.30;51.87
69535;BME280;56754;51.568;5.048;2023-05-29T09:44:20;102504.28;;;19.30;52.00
69535;BME280;56754;51.568;5.048;2023-05-29T09:46:48;102495.84;;;19.32;51.77
69535;BME280;56754;51.568;5.048;2023-05-29T09:49:14;102499.34;;;19.32;51.57
69535;BME280;56754;51.568;5.048;2023-05-29T09:51:39;102498.19;;;19.33;51.23
69535;BME280;56754;51.568;5.048;2023-05-29T09:54:18;102499.81;;;19.35;51.08
69535;BME280;56754;51.568;5.048;2023-05-29T09:56:44;102497.88;;;19.35;51.27
69535;BME280;56754;51.568;5.048;2023-05-29T09:59:14;102498.69;;;19.36;50.91
69535;BME280;56754;51.568;5.048;2023-05-29T10:01:42;102505.69;;;19.37;50.78
69535;BME280;56754;51.568;5.048;2023-05-29T10:04:08;102504.56;;;19.38;50.97
69535;BME280;56754;51.568;5.048;2023-05-29T10:06:35;102506.16;;;19.39;50.90
69535;BME280;56754;51.568;5.048;2023-05-29T10:09:02;102505.03;;;19.40;51.00
69535;BME280;56754;51.568;5.048;2023-05-29T10:11:28;102503.91;;;19.41;50.85
69535;BME280;56754;51.568;5.048;2023-05-29T10:13:54;102507.41;;;19.41;52.12
69535;BME280;56754;51.568;5.048;2023-05-29T10:16:22;102493.06;;;19.41;51.31
69535;BME280;56754;51.568;5.048;2023-05-29T10:18:56;102497.06;;;19.43;51.63
69535;BME280;56754;51.568;5.048;2023-05-29T10:21:24;102494.78;;;19.45;50.70
69535;BME280;56754;51.568;5.048;2023-05-29T10:23:52;102489.03;;;19.47;50.31
69535;BME280;56754;51.568;5.048;2023-05-29T10:26:21;102480.91;;;19.47;50.67
69535;BME280;56754;51.568;5.048;2023-05-29T10:28:58;102493.34;;;19.48;50.85
69535;BME280;56754;51.568;5.048;2023-05-29T10:31:38;102487.59;;;19.49;50.45
69535;BME280;56754;51.568;5.048;2023-05-29T10:34:17;102486.47;;;19.50;50.46
69535;BME280;56754;51.568;5.048;2023-05-29T10:36:51;102490.75;;;19.51;50.32
69535;BME280;56754;51.568;5.048;2023-05-29T10:39:20;102482.63;;;19.51;50.13
69535;BME280;56754;51.568;5.048;2023-05-29T10:41:46;102489.66;;;19.52;49.97
69535;BME280;56754;51.568;5.048;2023-05-29T10:49:21;102482.75;;;19.55;50.15
69535;BME280;56754;51.568;5.048;2023-05-29T10:51:47;102473.50;;;19.56;49.23
69535;BME280;56754;51.568;5.048;2023-05-29T10:54:13;102482.44;;;19.57;49.39
69535;BME280;56754;51.568;5.048;2023-05-29T10:56:39;102475.88;;;19.58;50.14
69535;BME280;56754;51.568;5.048;2023-05-29T10:59:04;102466.63;;;19.59;50.95
69535;BME280;56754;51.568;5.048;2023-05-29T11:01:32;102476.34;;;19.60;49.59
69535;BME280;56754;51.568;5.048;2023-05-29T11:06:44;102473.75;;;19.63;51.27
69535;BME280;56754;51.568;5.048;2023-05-29T11:09:32;102479.97;;;19.64;50.96
69535;BME280;56754;51.568;5.048;2023-05-29T11:12:21;102477.75;;;19.66;50.75
69535;BME280;56754;51.568;5.048;2023-05-29T11:14:52;102474.72;;;19.67;50.65
69535;BME280;56754;51.568;5.048;2023-05-29T11:20:05;102477.88;;;19.69;50.97
69535;BME280;56754;51.568;5.048;2023-05-29T11:23:20;102471.00;;;19.72;51.09
69535;BME280;56754;51.568;5.048;2023-05-29T11:25:27;102467.97;;;19.73;49.05
69535;BME280;56754;51.568;5.048;2023-05-29T11:27:53;102463.81;;;19.76;50.79
69535;BME280;56754;51.568;5.048;2023-05-29T11:30:19;102459.97;;;19.77;50.25
69535;BME280;56754;51.568;5.048;2023-05-29T11:32:45;102462.31;;;19.78;50.82
69535;BME280;56754;51.568;5.048;2023-05-29T11:35:11;102475.22;;;19.82;51.63
69535;BME280;56754;51.568;5.048;2023-05-29T11:37:43;102472.50;;;19.82;51.27
69535;BME280;56754;51.568;5.048;2023-05-29T11:40:09;102455.91;;;19.83;51.46
69535;BME280;56754;51.568;5.048;2023-05-29T11:42:46;102469.94;;;19.85;51.05
69535;BME280;56754;51.568;5.048;2023-05-29T11:45:19;102469.59;;;19.87;51.76
69535;BME280;56754;51.568;5.048;2023-05-29T11:50:25;102463.50;;;19.90;51.90
69535;BME280;56754;51.568;5.048;2023-05-29T11:52:50;102463.19;;;19.91;51.92
69535;BME280;56754;51.568;5.048;2023-05-29T11:55:16;102469.41;;;19.92;51.79
69535;BME280;56754;51.568;5.048;2023-05-29T11:57:42;102462.53;;;19.94;51.46
69535;BME280;56754;51.568;5.048;2023-05-29T12:00:07;102462.19;;;19.96;50.69
69535;BME280;56754;51.568;5.048;2023-05-29T12:02:33;102456.44;;;19.97;50.06
69535;BME280;56754;51.568;5.048;2023-05-29T12:05:02;102455.28;;;19.98;50.37
69535;BME280;56754;51.568;5.048;2023-05-29T12:07:28;102466.94;;;19.99;51.21
69535;BME280;56754;51.568;5.048;2023-05-29T12:09:53;102459.25;;;20.01;50.26
69535;BME280;56754;51.568;5.048;2023-05-29T12:12:19;102464.38;;;20.03;50.98
69535;BME280;56754;51.568;5.048;2023-05-29T12:14:44;102454.31;;;20.03;51.81
69535;BME280;56754;51.568;5.048;2023-05-29T12:17:09;102460.19;;;20.05;52.12
69535;BME280;56754;51.568;5.048;2023-05-29T12:19:35;102461.78;;;20.06;53.15
69535;BME280;56754;51.568;5.048;2023-05-29T12:22:00;102450.56;;;20.08;52.83
69535;BME280;56754;51.568;5.048;2023-05-29T12:24:25;102454.91;;;20.09;52.37
69535;BME280;56754;51.568;5.048;2023-05-29T12:26:51;102453.41;;;20.11;52.26
69535;BME280;56754;51.568;5.048;2023-05-29T12:29:16;102457.38;;;20.14;52.66
69535;BME280;56754;51.568;5.048;2023-05-29T12:31:42;102462.13;;;20.17;52.90
69535;BME280;56754;51.568;5.048;2023-05-29T12:34:08;102464.19;;;20.20;52.71
69535;BME280;56754;51.568;5.048;2023-05-29T12:36:34;102452.66;;;20.23;52.96
69535;BME280;56754;51.568;5.048;2023-05-29T12:38:59;102455.50;;;20.27;52.93
69535;BME280;56754;51.568;5.048;2023-05-29T12:41:26;102453.69;;;20.31;52.89
69535;BME280;56754;51.568;5.048;2023-05-29T12:43:53;102451.44;;;20.33;52.89
69535;BME280;56754;51.568;5.048;2023-05-29T12:46:19;102464.34;;;20.36;52.79
69535;BME280;56754;51.568;5.048;2023-05-29T12:48:44;102460.19;;;20.38;52.67
69535;BME280;56754;51.568;5.048;2023-05-29T12:51:09;102450.56;;;20.41;52.58
69535;BME280;56754;51.568;5.048;2023-05-29T12:53:35;102439.34;;;20.42;52.54
69535;BME280;56754;51.568;5.048;2023-05-29T12:56:00;102449.53;;;20.45;52.60
69535;BME280;56754;51.568;5.048;2023-05-29T12:58:25;102447.28;;;20.48;52.55
69535;BME280;56754;51.568;5.048;2023-05-29T13:00:53;102442.66;;;20.48;52.50
69535;BME280;56754;51.568;5.048;2023-05-29T13:03:18;102447.41;;;20.51;52.71
69535;BME280;56754;51.568;5.048;2023-05-29T13:05:43;102450.63;;;20.53;52.60
69535;BME280;56754;51.568;5.048;2023-05-29T13:08:09;102453.75;;;20.55;52.51
69535;BME280;56754;51.568;5.048;2023-05-29T13:10:34;102458.88;;;20.57;52.16